createdAt,value
2022-12-13T00:00:53.827Z,121.95
2022-12-13T00:01:59.592Z,115.63
2022-12-13T00:03:01.881Z,130.55
2022-12-13T00:04:08.438Z,120.63
2022-12-13T00:05:11.266Z,127.28
2022-12-13T00:06:16.546Z,130.15
2022-12-13T00:07:21.474Z,126.18
2022-12-13T00:08:23.745Z,133.95
2022-12-13T00:09:28.601Z,135.18
2022-12-13T00:10:31.093Z,126.05
2022-12-13T00:11:36.160Z,128.65
2022-12-13T00:12:38.542Z,128.10
2022-12-13T00:13:44.510Z,126.05
2022-12-13T00:14:51.850Z,117.40
2022-12-13T00:15:58.279Z,117.80
2022-12-13T00:17:06.707Z,120.28
2022-12-13T00:18:09.006Z,109.30
2022-12-13T00:19:17.319Z,117.75
2022-12-13T00:20:19.695Z,110.47
2022-12-13T00:21:26.487Z,115.03
2022-12-13T00:22:28.822Z,119.88
2022-12-13T00:23:34.704Z,110.30
2022-12-13T00:24:40.212Z,112.25
2022-12-13T00:25:49.290Z,124.53
2022-12-13T00:26:57.936Z,119.60
2022-12-13T00:28:00.679Z,122.05
2022-12-13T00:29:07.861Z,133.27
2022-12-13T00:30:13.535Z,122.10
2022-12-13T00:31:53.526Z,117.22
2022-12-13T00:32:43.921Z,129.45
2022-12-13T00:33:46.297Z,120.30
2022-12-13T00:34:51.101Z,129.57
2022-12-13T00:35:53.704Z,119.35
2022-12-13T00:37:04.954Z,136.10
2022-12-13T00:38:07.341Z,116.07
2022-12-13T00:39:14.140Z,124.03
2022-12-13T00:40:16.369Z,110.57
2022-12-13T00:41:23.477Z,118.20
2022-12-13T00:42:28.326Z,148.30
2022-12-13T00:43:30.611Z,133.35
2022-12-13T00:44:35.807Z,111.70
2022-12-13T00:45:41.256Z,118.20
2022-12-13T00:46:46.478Z,123.55
2022-12-13T00:47:51.290Z,118.40
2022-12-13T00:48:55.072Z,117.22
2022-12-13T00:50:00.235Z,123.95
2022-12-13T00:51:06.975Z,119.38
2022-12-13T00:52:11.852Z,121.25
2022-12-13T00:53:14.188Z,121.32
2022-12-13T00:54:19.690Z,108.13
2022-12-13T00:55:24.408Z,105.88
2022-12-13T00:56:29.198Z,113.88
2022-12-13T00:57:34.160Z,116.55
2022-12-13T00:58:50.173Z,127.45
2022-12-13T00:59:56.914Z,113.93
2022-12-13T01:01:29.274Z,114.70
2022-12-13T01:02:47.764Z,114.95
2022-12-13T01:04:01.938Z,103.35
2022-12-13T01:05:11.354Z,110.05
2022-12-13T01:06:34.563Z,115.38
2022-12-13T01:07:47.721Z,107.03
2022-12-13T01:08:58.578Z,109.72
2022-12-13T01:10:07.512Z,114.30
2022-12-13T01:11:24.594Z,115.85
2022-12-13T01:12:38.997Z,99.45
2022-12-13T01:13:42.303Z,106.68
2022-12-13T01:14:56.285Z,106.50
2022-12-13T01:16:19.056Z,99.07
2022-12-13T01:19:00.883Z,102.07
2022-12-13T01:20:21.793Z,102.93
2022-12-13T01:21:38.644Z,102.95
2022-12-13T01:22:46.161Z,110.53
2022-12-13T01:24:16.724Z,107.40
2022-12-13T01:25:30.582Z,98.43
2022-12-13T01:26:58.640Z,101.03
2022-12-13T01:28:11.993Z,105.22
2022-12-13T01:29:25.938Z,107.70
2022-12-13T01:30:36.032Z,100.43
2022-12-13T01:31:47.756Z,111.47
2022-12-13T01:32:57.458Z,102.90
2022-12-13T01:34:10.841Z,103.70
2022-12-13T01:35:21.775Z,116.70
2022-12-13T01:36:29.846Z,115.00
2022-12-13T01:39:03.767Z,108.50
2022-12-13T01:40:27.663Z,108.40
2022-12-13T01:41:40.504Z,104.47
2022-12-13T01:42:52.149Z,119.10
2022-12-13T01:44:03.785Z,115.57
2022-12-13T01:45:39.882Z,113.80
2022-12-13T01:46:55.046Z,129.50
2022-12-13T01:48:19.170Z,132.57
2022-12-13T01:49:29.290Z,114.93
2022-12-13T01:50:47.751Z,118.38
2022-12-13T01:52:06.558Z,108.80
2022-12-13T01:53:28.311Z,126.50
2022-12-13T01:56:07.946Z,116.82
2022-12-13T01:57:18.311Z,113.25
2022-12-13T01:58:33.865Z,118.03
2022-12-13T01:59:40.402Z,114.32
2022-12-13T02:00:56.771Z,120.15
2022-12-13T02:02:10.461Z,116.68
2022-12-13T02:03:25.941Z,116.57
2022-12-13T02:04:44.238Z,122.20
2022-12-13T02:06:00.836Z,121.80
2022-12-13T02:07:04.028Z,125.45
2022-12-13T02:08:19.858Z,128.50
2022-12-13T02:09:39.335Z,127.18
2022-12-13T02:11:15.449Z,121.50
2022-12-13T02:12:29.909Z,122.47
2022-12-13T02:13:47.220Z,120.32
2022-12-13T02:14:53.769Z,120.50
2022-12-13T02:16:21.959Z,111.07
2022-12-13T02:17:34.453Z,117.82
2022-12-13T02:19:12.112Z,110.18
2022-12-13T02:20:48.009Z,110.75
2022-12-13T02:22:06.601Z,113.57
2022-12-13T02:23:46.491Z,105.72
2022-12-13T02:25:29.490Z,104.80
2022-12-13T02:26:53.421Z,107.32
2022-12-13T02:28:30.614Z,102.03
2022-12-13T02:30:02.912Z,101.43
2022-12-13T02:31:27.078Z,100.40
2022-12-13T02:32:41.788Z,106.78
2022-12-13T02:34:13.664Z,101.03
2022-12-13T02:35:40.998Z,98.55
2022-12-13T02:37:17.607Z,103.85
2022-12-13T02:38:38.597Z,114.03
2022-12-13T02:39:50.489Z,107.43
2022-12-13T02:41:05.563Z,101.03
2022-12-13T02:42:31.743Z,95.25
2022-12-13T02:43:45.709Z,95.55
2022-12-13T02:45:01.867Z,97.35
2022-12-13T02:46:12.876Z,100.15
2022-12-13T02:47:30.134Z,107.90
2022-12-13T02:48:42.242Z,95.97
2022-12-13T02:50:00.280Z,97.25
2022-12-13T02:51:10.826Z,87.82
2022-12-13T02:52:22.423Z,89.97
2022-12-13T02:53:27.582Z,88.22
2022-12-13T02:54:37.120Z,92.07
2022-12-13T02:55:45.562Z,93.47
2022-12-13T02:57:01.369Z,80.25
2022-12-13T02:58:21.651Z,76.78
2022-12-13T02:59:27.411Z,76.13
2022-12-13T03:00:54.573Z,84.53
2022-12-13T03:02:30.784Z,82.65
2022-12-13T03:03:51.353Z,84.65
2022-12-13T03:05:35.907Z,86.78
2022-12-13T03:06:58.386Z,84.18
2022-12-13T03:08:26.114Z,90.47
2022-12-13T03:09:48.550Z,82.50
2022-12-13T03:11:00.176Z,93.20
2022-12-13T03:12:39.188Z,98.10
2022-12-13T03:13:54.358Z,79.53
2022-12-13T03:15:04.003Z,80.40
2022-12-13T03:16:23.007Z,71.00
2022-12-13T03:17:37.096Z,73.78
2022-12-13T03:18:42.194Z,84.50
2022-12-13T03:19:47.735Z,71.63
2022-12-13T03:20:57.609Z,70.15
2022-12-13T03:22:11.958Z,73.05
2022-12-13T03:23:21.618Z,73.38
2022-12-13T03:24:30.217Z,63.95
2022-12-13T03:25:34.934Z,69.00
2022-12-13T03:26:51.843Z,77.25
2022-12-13T03:28:15.678Z,82.35
2022-12-13T03:29:24.793Z,73.47
2022-12-13T03:30:29.359Z,66.68
2022-12-13T03:31:34.689Z,68.93
2022-12-13T03:32:40.092Z,68.68
2022-12-13T03:33:49.343Z,75.25
2022-12-13T03:35:00.589Z,71.10
2022-12-13T03:36:15.557Z,67.55
2022-12-13T03:37:23.633Z,71.47
2022-12-13T03:38:26.852Z,64.97
2022-12-13T03:39:31.975Z,73.68
2022-12-13T03:40:37.886Z,71.53
2022-12-13T03:41:45.405Z,71.75
2022-12-13T03:42:48.617Z,67.45
2022-12-13T03:43:54.030Z,72.35
2022-12-13T03:44:56.394Z,67.63
2022-12-13T03:46:01.507Z,74.07
2022-12-13T03:47:09.743Z,67.63
2022-12-13T03:48:14.726Z,71.63
2022-12-13T03:49:27.326Z,64.40
2022-12-13T03:50:40.202Z,66.95
2022-12-13T03:51:45.235Z,69.07
2022-12-13T03:52:48.136Z,67.35
2022-12-13T03:53:53.172Z,69.38
2022-12-13T03:54:55.543Z,71.63
2022-12-13T03:56:01.481Z,66.95
2022-12-13T03:57:04.069Z,79.45
2022-12-13T03:58:08.956Z,67.28
2022-12-13T03:59:17.949Z,69.97
2022-12-13T04:00:20.530Z,79.35
2022-12-13T04:01:25.609Z,73.05
2022-12-13T04:02:30.497Z,64.90
2022-12-13T04:03:40.719Z,66.03
2022-12-13T04:04:43.049Z,72.15
2022-12-13T04:05:48.157Z,70.60
2022-12-13T04:06:56.224Z,68.03
2022-12-13T04:08:01.205Z,68.13
2022-12-13T04:09:06.765Z,66.47
2022-12-13T04:10:25.569Z,63.88
2022-12-13T04:11:44.210Z,68.78
2022-12-13T04:13:01.515Z,64.63
2022-12-13T04:14:09.160Z,72.30
2022-12-13T04:15:11.580Z,64.53
2022-12-13T04:16:16.578Z,78.13
2022-12-13T04:17:19.025Z,77.18
2022-12-13T04:18:24.072Z,77.18
2022-12-13T04:19:29.016Z,68.28
2022-12-13T04:20:40.554Z,64.00
2022-12-13T04:21:50.269Z,65.75
2022-12-13T04:23:09.921Z,68.85
2022-12-13T04:24:31.929Z,70.97
2022-12-13T04:26:49.707Z,74.80
2022-12-13T04:27:57.697Z,66.13
2022-12-13T04:29:06.879Z,67.80
2022-12-13T04:30:19.719Z,66.55
2022-12-13T04:31:33.316Z,72.53
2022-12-13T04:32:41.371Z,63.03
2022-12-13T04:33:50.087Z,83.57
2022-12-13T04:35:08.075Z,74.10
2022-12-13T04:36:30.896Z,67.30
2022-12-13T04:37:48.839Z,67.18
2022-12-13T04:39:22.256Z,62.72
2022-12-13T04:40:27.975Z,69.03
2022-12-13T04:41:40.310Z,69.15
2022-12-13T04:42:43.151Z,69.18
2022-12-13T04:43:53.295Z,73.20
2022-12-13T04:44:59.757Z,75.82
2022-12-13T04:46:09.693Z,71.05
2022-12-13T04:47:46.999Z,66.65
2022-12-13T04:48:53.748Z,61.25
2022-12-13T04:50:05.987Z,92.47
2022-12-13T04:51:13.036Z,69.25
2022-12-13T04:52:22.430Z,69.00
2022-12-13T04:53:29.436Z,76.68
2022-12-13T04:54:35.606Z,69.47
2022-12-13T04:55:40.608Z,74.45
2022-12-13T04:56:45.842Z,72.50
2022-12-13T04:57:48.213Z,79.88
2022-12-13T04:58:53.344Z,72.20
2022-12-13T04:59:55.776Z,60.67
2022-12-13T05:01:02.894Z,71.35
2022-12-13T05:02:09.905Z,69.60
2022-12-13T05:03:15.193Z,62.47
2022-12-13T05:04:20.441Z,68.20
2022-12-13T05:05:28.392Z,53.25
2022-12-13T05:06:31.056Z,66.10
2022-12-13T05:07:36.189Z,64.15
2022-12-13T05:08:48.275Z,69.47
2022-12-13T05:09:50.734Z,61.95
2022-12-13T05:10:57.709Z,55.88
2022-12-13T05:12:00.908Z,60.20
2022-12-13T05:13:09.221Z,61.45
2022-12-13T05:14:11.777Z,55.22
2022-12-13T05:15:17.105Z,58.67
2022-12-13T05:16:24.824Z,67.55
2022-12-13T05:17:27.203Z,60.65
2022-12-13T05:18:32.925Z,68.25
2022-12-13T05:19:35.146Z,58.58
2022-12-13T05:20:42.995Z,57.17
2022-12-13T05:21:45.361Z,66.47
2022-12-13T05:22:50.098Z,58.90
2022-12-13T05:23:52.400Z,76.68
2022-12-13T05:24:57.265Z,67.40
2022-12-13T05:26:02.473Z,60.72
2022-12-13T05:27:24.466Z,59.63
2022-12-13T05:28:30.881Z,64.13
2022-12-13T05:29:33.240Z,63.17
2022-12-13T05:30:40.445Z,58.05
2022-12-13T05:31:42.700Z,59.67
2022-12-13T05:32:47.726Z,67.80
2022-12-13T05:33:49.910Z,59.35
2022-12-13T05:34:54.675Z,61.08
2022-12-13T05:36:02.086Z,63.13
2022-12-13T05:37:07.306Z,63.95
2022-12-13T05:38:09.969Z,65.10
2022-12-13T05:39:34.861Z,69.35
2022-12-13T05:40:39.437Z,72.85
2022-12-13T05:41:46.761Z,70.80
2022-12-13T05:43:00.944Z,63.90
2022-12-13T05:44:07.116Z,69.95
2022-12-13T05:45:13.671Z,60.50
2022-12-13T05:46:24.925Z,71.75
2022-12-13T05:47:33.071Z,108.68
2022-12-13T05:48:40.454Z,71.43
2022-12-13T05:49:43.158Z,68.75
2022-12-13T05:50:51.043Z,72.35
2022-12-13T05:52:00.294Z,61.20
2022-12-13T05:53:08.871Z,59.35
2022-12-13T05:54:17.754Z,63.42
2022-12-13T05:55:26.211Z,66.38
2022-12-13T05:56:34.073Z,70.70
2022-12-13T05:57:39.242Z,69.68
2022-12-13T05:58:43.452Z,69.68
2022-12-13T05:59:48.611Z,60.40
2022-12-13T06:00:54.949Z,65.47
2022-12-13T06:02:18.291Z,61.88
2022-12-13T06:03:33.902Z,57.60
2022-12-13T06:04:42.136Z,65.15
2022-12-13T06:05:58.787Z,61.28
2022-12-13T06:07:12.285Z,57.03
2022-12-13T06:08:24.351Z,64.63
2022-12-13T06:09:39.998Z,70.95
2022-12-13T06:10:47.820Z,64.07
2022-12-13T06:12:02.395Z,76.28
2022-12-13T06:13:21.698Z,71.15
2022-12-13T06:14:30.604Z,68.85
2022-12-13T06:15:36.010Z,70.38
2022-12-13T06:16:49.758Z,70.03
2022-12-13T06:17:53.626Z,69.68
2022-12-13T06:19:04.602Z,65.60
2022-12-13T06:20:23.409Z,63.38
2022-12-13T06:21:43.971Z,69.57
2022-12-13T06:22:56.497Z,65.70
2022-12-13T06:24:01.242Z,65.28
2022-12-13T06:25:06.924Z,68.70
2022-12-13T06:26:36.450Z,71.72
2022-12-13T06:27:41.438Z,74.50
2022-12-13T06:28:48.504Z,65.95
2022-12-13T06:29:56.140Z,69.35
2022-12-13T06:31:00.871Z,68.07
2022-12-13T06:32:06.997Z,77.15
2022-12-13T06:33:11.339Z,63.42
2022-12-13T06:34:18.506Z,73.32
2022-12-13T06:35:28.914Z,68.82
2022-12-13T06:36:35.096Z,59.75
2022-12-13T06:37:42.440Z,61.05
2022-12-13T06:38:50.150Z,60.65
2022-12-13T06:39:55.086Z,59.65
2022-12-13T06:41:09.718Z,61.05
2022-12-13T06:42:21.962Z,64.25
2022-12-13T06:43:25.141Z,63.05
2022-12-13T06:44:30.232Z,69.55
2022-12-13T06:45:32.623Z,75.72
2022-12-13T06:46:40.991Z,82.28
2022-12-13T06:47:46.263Z,69.50
2022-12-13T06:48:51.128Z,62.65
2022-12-13T06:49:53.414Z,71.70
2022-12-13T06:50:58.360Z,65.57
2022-12-13T06:52:03.847Z,61.65
2022-12-13T06:53:12.527Z,60.08
2022-12-13T06:54:21.548Z,65.47
2022-12-13T06:55:27.017Z,70.22
2022-12-13T06:56:33.198Z,63.72
2022-12-13T06:57:35.652Z,63.63
2022-12-13T06:58:41.041Z,63.85
2022-12-13T06:59:45.920Z,65.28
2022-12-13T07:00:49.599Z,72.68
2022-12-13T07:01:54.834Z,68.53
2022-12-13T07:03:09.086Z,80.90
2022-12-13T07:04:29.657Z,84.20
2022-12-13T07:06:48.473Z,83.40
2022-12-13T07:08:01.480Z,88.50
2022-12-13T07:09:09.998Z,77.68
2022-12-13T07:10:21.869Z,78.57
2022-12-13T07:11:30.657Z,89.57
2022-12-13T07:12:37.946Z,82.75
2022-12-13T07:14:05.055Z,84.35
2022-12-13T07:15:17.627Z,91.30
2022-12-13T07:16:27.285Z,82.85
2022-12-13T07:17:50.604Z,80.32
2022-12-13T07:19:22.899Z,84.85
2022-12-13T07:20:29.326Z,99.15
2022-12-13T07:21:32.343Z,80.53
2022-12-13T07:22:48.467Z,92.50
2022-12-13T07:25:38.424Z,94.50
2022-12-13T07:26:43.358Z,85.93
2022-12-13T07:27:45.519Z,82.05
2022-12-13T07:28:55.426Z,87.10
2022-12-13T07:30:00.905Z,83.30
2022-12-13T07:31:07.621Z,76.55
2022-12-13T07:32:14.618Z,81.43
2022-12-13T07:33:22.203Z,74.55
2022-12-13T07:34:29.390Z,74.97
2022-12-13T07:35:36.962Z,77.95
2022-12-13T07:36:42.393Z,80.03
2022-12-13T07:37:47.265Z,67.55
2022-12-13T07:38:55.163Z,64.35
2022-12-13T07:40:03.992Z,69.25
2022-12-13T07:41:12.912Z,74.60
2022-12-13T07:42:29.829Z,73.88
2022-12-13T07:43:35.115Z,142.88
2022-12-13T07:44:39.777Z,73.55
2022-12-13T07:45:44.561Z,76.65
2022-12-13T07:46:49.286Z,63.42
2022-12-13T07:47:54.300Z,70.50
2022-12-13T07:49:01.563Z,66.85
2022-12-13T07:50:07.191Z,64.32
2022-12-13T07:51:30.153Z,64.75
2022-12-13T07:52:34.915Z,81.47
2022-12-13T07:53:39.839Z,70.03
2022-12-13T07:54:44.466Z,63.20
2022-12-13T07:55:46.590Z,110.97
2022-12-13T07:56:53.859Z,73.65
2022-12-13T07:57:58.632Z,64.30
2022-12-13T07:59:08.979Z,64.72
2022-12-13T08:00:15.215Z,63.78
2022-12-13T08:01:20.182Z,68.97
2022-12-13T08:02:25.039Z,68.85
2022-12-13T08:03:30.241Z,70.93
2022-12-13T08:04:37.920Z,73.90
2022-12-13T08:05:43.185Z,69.88
2022-12-13T08:06:48.139Z,71.22
2022-12-13T08:07:53.145Z,78.28
2022-12-13T08:08:58.860Z,80.03
2022-12-13T08:10:03.601Z,78.20
2022-12-13T08:11:11.746Z,72.78
2022-12-13T08:12:22.592Z,74.70
2022-12-13T08:13:27.772Z,72.55
2022-12-13T08:14:35.375Z,64.35
2022-12-13T08:15:43.279Z,78.13
2022-12-13T08:16:50.856Z,68.82
2022-12-13T08:18:00.946Z,74.65
2022-12-13T08:19:05.692Z,72.72
2022-12-13T08:20:09.152Z,75.18
2022-12-13T08:21:51.751Z,62.13
2022-12-13T08:22:39.359Z,69.75
2022-12-13T08:25:45.158Z,84.65
2022-12-13T08:26:47.490Z,81.50
2022-12-13T08:27:55.537Z,77.65
2022-12-13T08:29:07.647Z,77.65
2022-12-13T08:30:20.490Z,81.20
2022-12-13T08:31:33.962Z,83.85
2022-12-13T08:32:39.064Z,109.30
2022-12-13T08:33:46.989Z,178.95
2022-12-13T08:34:52.256Z,154.40
2022-12-13T08:35:54.515Z,146.27
2022-12-13T08:37:01.898Z,111.90
2022-12-13T08:38:09.677Z,93.22
2022-12-13T08:39:14.565Z,108.78
2022-12-13T08:40:19.871Z,96.63
2022-12-13T08:41:24.828Z,79.95
2022-12-13T08:42:29.692Z,102.82
2022-12-13T08:43:37.016Z,95.03
2022-12-13T08:44:41.779Z,89.85
2022-12-13T08:45:46.624Z,90.15
2022-12-13T08:46:52.451Z,114.57
2022-12-13T08:47:59.970Z,105.75
2022-12-13T08:49:04.849Z,79.78
2022-12-13T08:50:10.748Z,99.68
2022-12-13T08:51:24.706Z,91.90
2022-12-13T08:52:31.221Z,105.28
2022-12-13T08:53:40.712Z,120.72
2022-12-13T08:54:44.867Z,100.00
2022-12-13T08:55:49.963Z,102.85
2022-12-13T08:56:54.732Z,105.55
2022-12-13T08:58:02.353Z,74.35
2022-12-13T08:59:09.785Z,99.40
2022-12-13T09:00:18.009Z,82.55
2022-12-13T09:01:22.984Z,86.03
2022-12-13T09:02:27.976Z,91.88
2022-12-13T09:03:32.908Z,81.85
2022-12-13T09:04:37.595Z,101.20
2022-12-13T09:05:42.614Z,102.60
2022-12-13T09:06:47.453Z,107.15
2022-12-13T09:07:52.144Z,114.18
2022-12-13T09:08:57.312Z,84.22
2022-12-13T09:10:07.019Z,87.72
2022-12-13T09:11:36.405Z,90.43
2022-12-13T09:12:46.294Z,128.10
2022-12-13T09:13:52.351Z,102.28
2022-12-13T09:15:22.226Z,102.30
2022-12-13T09:16:29.207Z,75.05
2022-12-13T09:17:41.238Z,118.15
2022-12-13T09:18:46.443Z,112.97
2022-12-13T09:20:02.879Z,98.18
2022-12-13T09:21:22.305Z,86.03
2022-12-13T09:23:01.871Z,99.45
2022-12-13T09:24:37.247Z,121.73
2022-12-13T09:26:18.351Z,160.45
2022-12-13T09:28:02.671Z,215.45
2022-12-13T09:30:54.467Z,114.00
2022-12-13T09:32:29.738Z,67.72
2022-12-13T09:40:25.965Z,101.05
2022-12-13T09:42:10.595Z,66.28
2022-12-13T09:43:43.298Z,78.63
2022-12-13T09:45:02.190Z,82.03
2022-12-13T09:46:44.915Z,88.30
2022-12-13T09:47:52.294Z,109.07
2022-12-13T09:49:13.311Z,86.45
2022-12-13T09:50:25.563Z,105.70
2022-12-13T09:51:43.123Z,102.10
2022-12-13T09:52:50.323Z,83.90
2022-12-13T09:53:57.453Z,80.80
2022-12-13T09:55:04.393Z,80.30
2022-12-13T09:56:13.081Z,54.47
2022-12-13T09:57:34.911Z,62.95
2022-12-13T09:58:42.730Z,99.88
2022-12-13T09:59:47.992Z,101.75
2022-12-13T10:01:00.101Z,89.10
2022-12-13T10:02:28.960Z,77.82
2022-12-13T10:03:34.914Z,74.65
2022-12-13T10:04:42.281Z,94.30
2022-12-13T10:05:50.902Z,90.18
2022-12-13T10:06:59.027Z,115.50
2022-12-13T10:08:08.901Z,100.78
2022-12-13T10:09:16.909Z,113.85
2022-12-13T10:10:23.325Z,90.45
2022-12-13T10:11:32.237Z,64.82
2022-12-13T10:12:37.843Z,88.28
2022-12-13T10:13:45.927Z,96.40
2022-12-13T10:14:54.732Z,71.93
2022-12-13T10:16:04.095Z,105.50
2022-12-13T10:17:20.834Z,77.88
2022-12-13T10:18:34.329Z,73.93
2022-12-13T10:19:42.816Z,74.68
2022-12-13T10:20:47.739Z,113.15
2022-12-13T10:21:51.695Z,126.50
2022-12-13T10:23:31.612Z,104.68
2022-12-13T10:24:31.505Z,90.53
2022-12-13T10:26:03.786Z,71.43
2022-12-13T10:27:16.905Z,66.50
2022-12-13T10:28:27.328Z,68.80
2022-12-13T10:29:32.061Z,65.82
2022-12-13T10:30:46.197Z,78.55
2022-12-13T10:31:54.356Z,82.28
2022-12-13T10:33:03.862Z,66.72
2022-12-13T10:34:08.978Z,65.07
2022-12-13T10:35:29.162Z,58.15
2022-12-13T10:36:38.592Z,77.05
2022-12-13T10:37:43.717Z,60.28
2022-12-13T10:38:49.479Z,80.00
2022-12-13T10:39:51.587Z,91.00
2022-12-13T10:40:56.666Z,79.47
2022-12-13T10:42:07.689Z,68.63
2022-12-13T10:43:17.410Z,71.40
2022-12-13T10:44:22.823Z,62.20
2022-12-13T10:45:28.065Z,54.80
2022-12-13T10:46:38.530Z,111.00
2022-12-13T10:47:48.897Z,69.93
2022-12-13T10:48:56.359Z,56.47
2022-12-13T10:50:02.525Z,80.13
2022-12-13T10:51:09.789Z,76.20
2022-12-13T10:52:31.533Z,65.68
2022-12-13T10:53:47.361Z,68.25
2022-12-13T10:54:53.680Z,68.55
2022-12-13T10:56:07.087Z,76.68
2022-12-13T10:57:14.667Z,82.38
2022-12-13T10:58:22.487Z,66.63
2022-12-13T10:59:30.385Z,71.00
2022-12-13T11:00:39.734Z,82.60
2022-12-13T11:03:36.797Z,44.10
2022-12-13T11:04:44.697Z,47.10
2022-12-13T11:05:51.245Z,53.08
2022-12-13T11:06:56.409Z,71.63
2022-12-13T11:08:16.692Z,75.78
2022-12-13T11:09:26.971Z,41.10
2022-12-13T11:10:32.551Z,68.70
2022-12-13T11:11:37.331Z,52.78
2022-12-13T11:12:43.456Z,58.22
2022-12-13T11:13:50.475Z,70.80
2022-12-13T11:14:59.606Z,60.90
2022-12-13T11:16:02.324Z,57.78
2022-12-13T11:17:12.405Z,67.75
2022-12-13T11:18:25.177Z,65.50
2022-12-13T11:19:39.349Z,55.55
2022-12-13T11:20:59.601Z,71.30
2022-12-13T11:22:04.626Z,63.08
2022-12-13T11:23:19.275Z,52.00
2022-12-13T11:24:28.216Z,47.65
2022-12-13T11:25:38.720Z,41.58
2022-12-13T11:26:48.780Z,36.63
2022-12-13T11:28:06.116Z,46.22
2022-12-13T11:29:51.377Z,36.15
2022-12-13T11:31:07.309Z,41.42
2022-12-13T11:32:22.894Z,39.28
2022-12-13T11:33:48.016Z,49.78
2022-12-13T11:35:02.869Z,38.22
2022-12-13T11:36:22.183Z,40.60
2022-12-13T11:37:31.954Z,58.20
2022-12-13T11:38:57.647Z,72.32
2022-12-13T11:40:08.221Z,71.38
2022-12-13T11:41:31.473Z,58.95
2022-12-13T11:42:44.384Z,62.25
2022-12-13T11:43:58.199Z,126.22
2022-12-13T11:45:23.164Z,52.33
2022-12-13T11:46:38.502Z,111.97
2022-12-13T11:47:49.285Z,92.15
2022-12-13T11:48:59.327Z,95.03
2022-12-13T11:50:08.541Z,99.82
2022-12-13T11:51:22.685Z,99.03
2022-12-13T11:52:32.094Z,39.33
2022-12-13T11:53:42.602Z,64.75
2022-12-13T11:54:54.532Z,75.35
2022-12-13T11:56:06.433Z,63.35
2022-12-13T11:57:20.810Z,76.95
2022-12-13T11:59:01.193Z,57.70
2022-12-13T12:00:02.651Z,65.22
2022-12-13T12:01:13.716Z,62.78
2022-12-13T12:02:26.092Z,47.20
2022-12-13T12:03:40.299Z,58.72
2022-12-13T12:04:56.598Z,58.55
2022-12-13T12:06:12.372Z,51.08
2022-12-13T12:07:32.930Z,52.35
2022-12-13T12:08:44.250Z,70.00
2022-12-13T12:09:57.016Z,53.17
2022-12-13T12:11:11.134Z,47.25
2022-12-13T12:12:21.983Z,60.60
2022-12-13T12:13:33.506Z,57.40
2022-12-13T12:14:44.699Z,66.10
2022-12-13T12:15:55.465Z,93.18
2022-12-13T12:17:02.047Z,55.10
2022-12-13T12:18:04.380Z,68.85
2022-12-13T12:19:16.210Z,66.85
2022-12-13T12:20:28.638Z,61.22
2022-12-13T12:22:12.819Z,66.68
2022-12-13T12:23:25.853Z,52.15
2022-12-13T12:24:40.303Z,53.85
2022-12-13T12:25:52.058Z,76.75
2022-12-13T12:27:09.692Z,58.47
2022-12-13T12:28:28.874Z,84.70
2022-12-13T12:30:03.467Z,59.83
2022-12-13T12:31:18.531Z,65.95
2022-12-13T12:32:36.430Z,54.25
2022-12-13T12:36:28.515Z,79.60
2022-12-13T12:37:54.689Z,51.42
2022-12-13T12:42:03.528Z,67.40
2022-12-13T12:43:43.095Z,62.97
2022-12-13T12:46:01.020Z,61.13
2022-12-13T12:49:12.432Z,60.45
2022-12-13T12:50:35.898Z,44.20
2022-12-13T12:51:50.845Z,64.80
2022-12-13T12:53:05.065Z,49.08
2022-12-13T12:54:37.836Z,56.97
2022-12-13T12:56:27.883Z,50.40
2022-12-13T12:58:32.213Z,50.75
2022-12-13T13:00:14.552Z,56.90
2022-12-13T13:01:54.746Z,38.65
2022-12-13T13:03:54.293Z,59.08
2022-12-13T13:05:33.793Z,39.92
2022-12-13T13:07:40.455Z,58.72
2022-12-13T13:09:10.336Z,45.45
2022-12-13T13:13:33.407Z,64.03
2022-12-13T13:17:58.210Z,61.85
2022-12-13T13:22:03.073Z,40.53
2022-12-13T13:23:40.564Z,58.28
2022-12-13T13:24:42.516Z,94.22
2022-12-13T13:27:34.259Z,40.05
2022-12-13T13:28:41.954Z,58.55
2022-12-13T13:29:48.404Z,57.35
2022-12-13T13:31:13.447Z,57.80
2022-12-13T13:32:34.503Z,43.60
2022-12-13T13:33:56.582Z,68.73
2022-12-13T13:35:31.931Z,41.17
2022-12-13T13:36:52.824Z,42.90
2022-12-13T13:38:00.346Z,47.75
2022-12-13T13:39:19.708Z,51.50
2022-12-13T13:40:34.788Z,56.08
2022-12-13T13:41:44.585Z,68.85
2022-12-13T13:43:16.318Z,89.72
2022-12-13T13:44:53.423Z,51.22
2022-12-13T13:46:10.973Z,52.97
2022-12-13T13:47:14.880Z,46.70
2022-12-13T13:48:36.972Z,51.60
2022-12-13T13:49:44.192Z,49.70
2022-12-13T13:51:12.825Z,43.13
2022-12-13T13:52:25.270Z,48.53
2022-12-13T13:53:56.536Z,42.40
2022-12-13T13:55:38.897Z,45.38
2022-12-13T13:57:12.714Z,59.28
2022-12-13T13:58:58.185Z,78.45
2022-12-13T14:00:21.496Z,66.10
2022-12-13T14:02:02.940Z,63.85
2022-12-13T14:03:54.079Z,91.05
2022-12-13T14:05:43.417Z,74.15
2022-12-13T14:07:26.629Z,73.88
2022-12-13T14:08:45.402Z,45.67
2022-12-13T14:10:17.592Z,60.90
2022-12-13T14:13:20.600Z,94.85
2022-12-13T14:15:09.775Z,54.13
2022-12-13T14:16:57.200Z,95.35
2022-12-13T14:18:52.845Z,78.38
2022-12-13T14:20:24.595Z,57.72
2022-12-13T14:21:52.807Z,79.13
2022-12-13T14:23:04.468Z,66.13
2022-12-13T14:24:29.525Z,67.93
2022-12-13T14:25:52.801Z,88.57
2022-12-13T14:27:13.356Z,82.78
2022-12-13T14:28:26.160Z,73.88
2022-12-13T14:29:34.728Z,55.20
2022-12-13T14:30:48.073Z,68.07
2022-12-13T14:32:02.741Z,65.75
2022-12-13T14:33:07.590Z,112.93
2022-12-13T14:34:23.968Z,78.03
2022-12-13T14:35:32.715Z,61.85
2022-12-13T14:36:42.979Z,65.15
2022-12-13T14:37:59.799Z,69.85
2022-12-13T14:39:25.041Z,75.82
2022-12-13T14:40:34.608Z,62.72
2022-12-13T14:41:48.563Z,70.07
2022-12-13T14:43:05.288Z,62.22
2022-12-13T14:44:25.724Z,53.13
2022-12-13T14:45:32.977Z,73.13
2022-12-13T14:46:35.184Z,68.57
2022-12-13T14:47:43.087Z,63.90
2022-12-13T14:48:52.409Z,74.90
2022-12-13T14:50:01.408Z,69.75
2022-12-13T14:51:07.495Z,71.65
2022-12-13T14:52:26.142Z,69.10
2022-12-13T14:53:37.857Z,95.10
2022-12-13T14:54:51.788Z,60.78
2022-12-13T14:56:11.539Z,74.32
2022-12-13T14:57:35.467Z,74.63
2022-12-13T14:58:52.625Z,75.82
2022-12-13T14:59:59.075Z,71.18
2022-12-13T15:01:04.131Z,85.63
2022-12-13T15:02:09.273Z,48.88
2022-12-13T15:03:25.923Z,76.40
2022-12-13T15:04:33.066Z,77.03
2022-12-13T15:05:51.045Z,68.90
2022-12-13T15:06:59.919Z,58.95
2022-12-13T15:08:10.515Z,63.63
2022-12-13T15:10:25.386Z,74.85
2022-12-13T15:11:33.505Z,63.13
2022-12-13T15:12:38.529Z,59.00
2022-12-13T15:13:47.678Z,61.63
2022-12-13T15:14:55.929Z,59.13
2022-12-13T15:16:10.744Z,55.15
2022-12-13T15:17:30.834Z,78.53
2022-12-13T15:18:36.430Z,65.38
2022-12-13T15:19:48.910Z,67.57
2022-12-13T15:20:56.140Z,64.47
2022-12-13T15:22:04.150Z,77.07
2022-12-13T15:23:15.861Z,80.10
2022-12-13T15:24:29.526Z,78.57
2022-12-13T15:25:36.884Z,91.07
2022-12-13T15:26:43.374Z,94.10
2022-12-13T15:27:52.029Z,86.88
2022-12-13T15:29:01.463Z,78.97
2022-12-13T15:30:17.088Z,80.55
2022-12-13T15:31:22.618Z,61.70
2022-12-13T15:32:27.406Z,45.75
2022-12-13T15:33:36.815Z,74.97
2022-12-13T15:34:44.154Z,50.45
2022-12-13T15:35:50.824Z,59.85
2022-12-13T15:36:55.720Z,60.13
2022-12-13T15:38:00.901Z,71.05
2022-12-13T15:39:05.998Z,68.25
2022-12-13T15:40:12.755Z,64.72
2022-12-13T15:41:20.752Z,82.75
2022-12-13T15:42:28.798Z,82.10
2022-12-13T15:43:39.313Z,71.60
2022-12-13T15:44:50.570Z,69.35
2022-12-13T15:45:56.504Z,76.72
2022-12-13T15:47:05.782Z,77.78
2022-12-13T15:48:25.137Z,82.70
2022-12-13T15:49:34.640Z,69.70
2022-12-13T15:50:47.145Z,89.05
2022-12-13T15:51:58.568Z,82.20
2022-12-13T15:53:06.568Z,84.65
2022-12-13T15:54:22.840Z,80.32
2022-12-13T15:55:44.003Z,64.85
2022-12-13T15:57:06.073Z,53.60
2022-12-13T15:58:28.665Z,92.72
2022-12-13T15:59:38.373Z,65.45
2022-12-13T16:00:51.818Z,67.22
2022-12-13T16:01:58.643Z,53.30
2022-12-13T16:03:10.377Z,61.22
2022-12-13T16:04:25.297Z,65.38
2022-12-13T16:05:34.344Z,60.55
2022-12-13T16:10:26.808Z,83.82
2022-12-13T16:11:35.361Z,51.80
2022-12-13T16:12:53.445Z,62.95
2022-12-13T16:14:30.920Z,78.50